Time;durP1;ratioP1;P1;durP2;ratioP2;P2;SDS_P1;SDS_P2;PMS_P1;PMS_P2;Temp;Humidity;BMP_temperature;BMP_pressure;BME280_temperature;BME280_humidity;BME280_pressure;Samples;Min_cycle;Max_cycle;Signal;HPM_P1;HPM_P2
2023/10/28 00:01:27;;;;;;;2.60;0.87;;;12.70;97.60;;;13.03;63.35;97138.78;4970417;28;123834;-81
2023/10/28 00:03:54;;;;;;;2.97;1.07;;;14.20;98.30;;;13.00;62.99;97140.31;4970938;28;113643;-82
2023/10/28 00:06:20;;;;;;;1.00;0.80;;;12.70;97.70;;;12.98;62.85;97141.88;4961156;28;113166;-80
2023/10/28 00:08:47;;;;;;;3.70;1.00;;;13.30;98.00;;;12.97;63.02;97145.78;4973458;28;124330;-81
2023/10/28 00:11:13;;;;;;;1.27;0.90;;;12.60;97.70;;;12.97;63.06;97152.13;4974086;28;122783;-83
2023/10/28 00:13:42;;;;;;;1.30;0.90;;;13.80;98.20;;;12.92;63.37;97148.84;4972533;28;114408;-82
2023/10/28 00:16:08;;;;;;;1.83;1.07;;;14.10;98.30;;;12.90;63.22;97154.00;4975338;28;113740;-80
2023/10/28 00:18:36;;;;;;;1.50;1.10;;;13.20;98.00;;;12.90;63.14;97145.69;4982223;28;123435;-80
2023/10/28 00:21:11;;;;;;;3.00;1.37;;;12.60;97.70;;;12.89;63.22;97158.72;4975801;28;123908;-80
2023/10/28 00:23:40;;;;;;;1.90;0.97;;;12.60;97.80;;;12.87;63.17;97160.25;4969627;28;114329;-81
2023/10/28 00:26:07;;;;;;;1.00;0.87;;;12.60;97.80;;;12.86;63.38;97151.13;4968740;28;113756;-81
2023/10/28 00:28:33;;;;;;;1.10;0.80;;;14.80;98.90;;;12.86;63.33;97155.88;4987143;28;122452;-80
2023/10/28 00:31:01;;;;;;;1.10;0.90;;;12.60;97.80;;;12.85;63.13;97148.75;4974027;28;123416;-82
2023/10/28 00:33:29;;;;;;;0.90;0.70;;;12.50;97.80;;;12.84;63.35;97153.47;4967672;28;114326;-81
2023/10/28 00:35:58;;;;;;;0.97;0.80;;;14.00;98.50;;;12.84;63.35;97159.00;4971006;28;112967;-82
2023/10/28 00:38:25;;;;;;;2.13;0.90;;;12.50;97.80;;;12.83;63.25;97155.44;4971467;28;123307;-80
2023/10/28 00:40:51;;;;;;;1.10;0.93;;;12.60;97.90;;;12.85;63.49;97151.53;4954313;28;122904;-80
2023/10/28 00:43:24;;;;;;;1.30;1.00;;;12.50;97.80;;;12.82;63.15;97159.41;4974177;28;114559;-81
2023/10/28 00:45:51;;;;;;;3.40;0.83;;;13.50;98.30;;;12.82;63.35;97162.16;4971738;28;114058;-81
2023/10/28 00:48:18;;;;;;;1.30;1.00;;;12.50;97.80;;;12.81;63.30;97163.34;4971612;28;124222;-84
2023/10/28 00:50:45;;;;;;;1.40;0.80;;;13.20;98.40;;;12.81;63.15;97154.22;4971500;28;123990;-80
2023/10/28 00:53:16;;;;;;;1.33;0.90;;;14.60;98.70;;;12.80;63.12;97161.72;4971304;28;114336;-80
2023/10/28 00:55:42;;;;;;;1.30;0.90;;;12.50;97.70;;;12.79;63.16;97173.19;4972723;28;114007;-80
2023/10/28 00:58:11;;;;;;;1.33;1.00;;;11.50;97.30;;;12.76;63.14;97166.41;4991008;28;123213;-80
2023/10/28 01:00:40;;;;;;;1.80;0.87;;;12.90;98.00;;;12.76;63.08;97166.41;4954013;28;123113;-83
2023/10/28 01:03:09;;;;;;;1.20;0.80;;;15.20;98.80;;;12.71;63.16;97166.72;4971234;28;113542;-79
2023/10/28 01:05:35;;;;;;;3.37;0.90;;;12.50;97.70;;;12.70;62.64;97167.88;4962362;28;114004;-79
2023/10/28 01:08:02;;;;;;;2.70;0.90;;;12.70;97.70;;;12.68;62.83;97167.44;4972623;28;123783;-80
2023/10/28 01:10:31;;;;;;;1.90;0.90;;;12.40;97.60;;;12.68;62.90;97170.22;4972956;28;123683;-80
2023/10/28 01:13:01;;;;;;;1.20;0.90;;;12.40;97.60;;;12.67;63.20;97176.91;4972600;28;114429;-80
2023/10/28 01:15:27;;;;;;;1.53;1.00;;;13.90;98.30;;;12.68;63.07;97166.63;4965919;28;113177;-80
2023/10/28 01:17:59;;;;;;;1.17;0.87;;;13.10;97.90;;;12.69;63.16;97173.78;4995155;28;124036;-80
2023/10/28 01:20:35;;;;;;;1.67;1.10;;;12.40;97.60;;;12.69;62.74;97176.56;4973695;28;123045;-80
2023/10/28 01:23:07;;;;;;;1.40;0.90;;;12.40;97.60;;;12.67;63.07;97181.66;4972802;28;114477;-79
2023/10/28 01:25:34;;;;;;;5.50;1.23;;;12.40;97.70;;;12.66;62.84;97180.84;4973824;28;113248;-80
2023/10/28 01:28:03;;;;;;;3.17;1.20;;;12.40;97.60;;;12.65;63.11;97186.75;4972557;28;124142;-81
2023/10/28 01:30:29;;;;;;;1.00;0.90;;;12.40;97.60;;;12.65;62.91;97187.56;4971093;28;124164;-79
2023/10/28 01:32:56;;;;;;;1.47;1.10;;;11.10;97.00;;;12.61;62.91;97172.84;4953115;28;114903;-80
2023/10/28 01:35:22;;;;;;;2.23;1.10;;;12.30;97.50;;;12.63;63.05;97178.81;4969824;28;115181;-83
2023/10/28 01:37:49;;;;;;;3.30;1.33;;;12.40;97.60;;;12.65;63.05;97183.97;4971979;28;124082;-80
2023/10/28 01:40:19;;;;;;;1.83;1.10;;;12.30;97.60;;;12.64;62.95;97188.72;4971381;28;122853;-81
2023/10/28 01:42:47;;;;;;;1.20;1.00;;;12.30;97.50;;;12.63;62.78;97189.91;4952463;28;114250;-80
2023/10/28 01:45:18;;;;;;;2.23;1.03;;;14.10;98.40;;;12.66;62.91;97191.94;4952528;28;113987;-82
2023/10/28 01:47:48;;;;;;;1.60;0.90;;;14.00;98.30;;;12.63;62.92;97194.63;4936619;28;122874;-80
2023/10/28 01:50:16;;;;;;;1.53;1.10;;;12.30;97.60;;;12.62;62.82;97184.72;4935027;28;122990;-80
2023/10/28 01:52:45;;;;;;;1.10;0.87;;;13.60;98.20;;;12.65;63.09;97193.09;4952535;28;114591;-80
2023/10/28 01:55:11;;;;;;;1.23;0.83;;;12.30;97.70;;;12.63;63.31;97197.41;4951557;28;113882;-81
2023/10/28 01:57:38;;;;;;;1.40;1.00;;;12.30;97.60;;;12.63;62.92;97194.63;4952012;28;123868;-80
2023/10/28 02:00:12;;;;;;;1.47;0.90;;;15.20;99.00;;;12.62;63.23;97199.38;4933648;28;123721;-80
2023/10/28 02:02:39;;;;;;;1.20;1.00;;;12.30;97.70;;;12.59;63.08;97211.19;4951559;28;113724;-80
2023/10/28 02:05:06;;;;;;;1.10;0.80;;;12.30;97.70;;;12.60;63.17;97221.13;4950465;28;114467;-81
2023/10/28 02:07:35;;;;;;;1.40;0.90;;;12.30;97.80;;;12.58;63.07;97213.16;4952111;28;123465;-80
2023/10/28 02:10:03;;;;;;;2.00;0.90;;;15.30;99.00;;;12.58;63.38;97218.69;4950635;28;123003;-80
2023/10/28 02:12:34;;;;;;;2.00;1.17;;;12.30;97.80;;;12.62;63.53;97226.28;4968080;28;113867;-80
2023/10/28 02:15:03;;;;;;;1.77;1.10;;;12.30;97.80;;;12.62;63.32;97227.06;4973932;28;113867;-80
2023/10/28 02:17:35;;;;;;;1.67;0.90;;;9.90;97.20;;;12.65;63.25;97231.88;4971315;28;124149;-81
2023/10/28 02:20:06;;;;;;;3.73;1.07;;;12.40;97.80;;;12.68;63.33;97228.41;4970988;28;123873;-81
2023/10/28 02:22:33;;;;;;;1.20;0.97;;;12.40;97.70;;;12.69;63.17;97230.00;4972298;28;114506;-81
2023/10/28 02:24:59;;;;;;;1.63;0.90;;;12.40;97.70;;;12.72;62.98;97229.28;5006337;28;114983;-80
2023/10/28 02:27:26;;;;;;;3.93;1.23;;;12.60;97.80;;;12.74;63.00;97224.16;4959236;28;122537;-80
2023/10/28 02:29:53;;;;;;;2.57;0.97;;;12.40;97.70;;;12.77;62.97;97231.75;4973730;28;123702;-80
2023/10/28 02:32:19;;;;;;;2.20;1.03;;;13.60;98.20;;;12.78;62.81;97222.25;4974342;28;114340;-80
2023/10/28 02:34:48;;;;;;;4.60;1.10;;;14.20;98.40;;;12.79;62.99;97220.31;4970915;28;113158;-80
2023/10/28 02:37:15;;;;;;;1.20;1.00;;;15.00;98.80;;;12.78;62.75;97222.25;4972505;28;123846;-80
2023/10/28 02:39:43;;;;;;;2.40;1.30;;;13.90;98.30;;;12.83;62.87;97230.28;4974289;28;123981;-80
2023/10/28 02:42:10;;;;;;;1.73;1.03;;;14.60;98.60;;;12.84;62.80;97225.53;4973904;28;114320;-80
2023/10/28 02:44:37;;;;;;;3.87;1.10;;;12.50;97.60;;;12.83;62.63;97221.97;4978246;28;112977;-81
2023/10/28 02:47:03;;;;;;;2.40;0.93;;;13.60;98.10;;;12.86;63.03;97230.72;4973006;28;123356;-81
2023/10/28 02:49:30;;;;;;;1.67;1.00;;;12.60;97.60;;;12.88;62.68;97233.94;4975881;28;123183;-80
2023/10/28 02:51:56;;;;;;;2.27;1.07;;;12.60;97.60;;;12.91;62.49;97230.44;4967706;28;114141;-83
2023/10/28 02:54:23;;;;;;;1.63;1.20;;;14.90;98.50;;;12.91;62.37;97227.66;4968305;28;113975;-81
2023/10/28 02:56:49;;;;;;;1.83;1.17;;;12.60;97.50;;;12.92;62.09;97226.47;4975994;28;122490;-81
2023/10/28 02:59:16;;;;;;;2.07;1.10;;;12.60;97.50;;;12.91;62.01;97224.88;4973280;28;123831;-80
2023/10/28 03:01:42;;;;;;;2.90;1.10;;;15.10;98.50;;;12.93;62.25;97223.34;4974021;28;114460;-80
2023/10/28 03:04:11;;;;;;;1.90;1.00;;;12.60;97.30;;;12.94;62.25;97227.72;4968195;28;113925;-83
2023/10/28 03:06:40;;;;;;;2.10;1.00;;;14.00;97.90;;;12.96;62.14;97227.34;4973267;28;122621;-82
2023/10/28 03:09:07;;;;;;;5.80;1.30;;;12.70;97.30;;;12.96;62.15;97227.34;5009349;28;123823;-83
2023/10/28 03:11:37;;;;;;;3.20;1.30;;;14.60;98.10;;;12.95;61.56;97232.09;5005225;28;114531;-80
2023/10/28 03:14:06;;;;;;;2.40;1.20;;;12.70;97.10;;;12.96;61.28;97224.59;4973035;28;115452;-80
2023/10/28 03:16:34;;;;;;;2.03;1.00;;;12.60;97.10;;;12.96;61.55;97230.94;4971522;28;123173;-80
2023/10/28 03:19:01;;;;;;;1.70;1.10;;;14.20;97.70;;;12.97;61.60;97228.94;4972902;28;124422;-80
2023/10/28 03:21:27;;;;;;;2.77;1.40;;;12.80;97.10;;;12.98;61.54;97236.91;4973357;28;115615;-80
2023/10/28 03:23:54;;;;;;;3.03;1.03;;;12.70;96.90;;;12.97;61.63;97240.03;4974701;28;113811;-81
2023/10/28 03:26:27;;;;;;;3.63;1.43;;;13.70;97.40;;;12.96;61.50;97230.13;4972996;28;123411;-82
2023/10/28 03:28:56;;;;;;;2.07;1.03;;;12.70;97.10;;;12.96;61.55;97227.34;4974594;28;123773;-82
2023/10/28 03:31:32;;;;;;;2.50;1.30;;;13.50;97.20;;;12.96;61.06;97228.16;4969660;28;113863;-81
2023/10/28 03:33:58;;;;;;;2.23;1.00;;;14.30;97.60;;;12.95;61.26;97234.06;4970853;28;113369;-80
2023/10/28 03:36:28;;;;;;;3.00;1.40;;;15.80;98.10;;;12.92;61.49;97230.06;4992532;28;122187;-82
2023/10/28 03:38:55;;;;;;;8.80;1.50;;;14.80;97.70;;;12.89;61.37;97239.09;4972861;28;123107;-83
2023/10/28 03:41:22;;;;;;;3.03;1.37;;;12.80;96.80;;;12.85;61.53;97245.75;4965737;28;113626;-83
2023/10/28 03:43:49;;;;;;;2.53;1.40;;;12.50;96.70;;;12.85;61.46;97243.00;4971519;28;114550;-80
2023/10/28 03:46:20;;;;;;;2.37;1.20;;;12.10;96.50;;;12.85;61.19;97238.25;4974345;28;123818;-83
2023/10/28 03:48:46;;;;;;;4.03;1.30;;;11.80;96.40;;;12.85;61.57;97243.00;4975234;28;123481;-81
2023/10/28 03:51:13;;;;;;;3.13;1.40;;;12.60;96.80;;;12.84;61.66;97236.63;4975390;28;113405;-83
2023/10/28 03:53:39;;;;;;;2.43;1.43;;;12.60;96.80;;;12.83;61.33;97240.56;4974901;28;113844;-82
2023/10/28 03:56:07;;;;;;;1.87;1.17;;;13.00;96.90;;;12.85;61.75;97237.44;4973597;28;124055;-80
2023/10/28 03:58:33;;;;;;;4.40;1.47;;;12.60;96.80;;;12.87;61.50;97246.16;4995569;28;123960;-80
2023/10/28 04:01:10;;;;;;;3.27;1.30;;;13.90;97.30;;;12.89;61.14;97228.00;4971149;28;116618;-81
2023/10/28 04:03:36;;;;;;;2.20;1.10;;;15.30;97.90;;;12.90;61.18;97228.84;4992851;28;114915;-81
2023/10/28 04:06:15;;;;;;;3.07;1.30;;;13.90;97.30;;;12.94;61.23;97227.72;5010692;28;123217;-82
2023/10/28 04:08:42;;;;;;;2.83;1.20;;;14.80;97.60;;;12.94;61.21;97224.16;4993768;28;123055;-80
2023/10/28 04:11:10;;;;;;;3.77;1.30;;;12.60;96.70;;;12.96;60.86;97228.16;4994003;28;114393;-81
2023/10/28 04:13:39;;;;;;;3.60;1.47;;;12.70;96.70;;;12.95;60.80;97229.34;4994242;28;113282;-85
2023/10/28 04:16:06;;;;;;;2.20;1.30;;;14.60;97.40;;;12.96;60.72;97233.69;4992128;28;123301;-80
2023/10/28 04:18:33;;;;;;;4.93;1.63;;;14.10;97.20;;;12.94;60.94;97221.38;4996158;28;122902;-83
2023/10/28 04:21:00;;;;;;;4.37;1.37;;;13.90;97.00;;;12.93;60.50;97225.31;4981594;28;113379;-84
2023/10/28 04:23:27;;;;;;;2.97;1.23;;;12.60;96.40;;;12.91;60.50;97222.13;4999581;28;113802;-82
2023/10/28 04:25:56;;;;;;;1.90;1.13;;;14.60;97.20;;;12.90;60.38;97217.75;4996194;28;124750;-85
2023/10/28 04:28:22;;;;;;;3.23;1.13;;;14.40;97.10;;;12.90;60.20;97220.53;4996433;28;123563;-84
2023/10/28 04:31:02;;;;;;;3.00;1.33;;;12.60;96.20;;;12.89;60.14;97216.13;4994318;28;114331;-81
2023/10/28 04:33:31;;;;;;;3.23;1.30;;;12.50;96.20;;;12.87;60.03;97218.47;4998163;28;113973;-84
2023/10/28 04:35:58;;;;;;;2.33;1.17;;;14.10;96.70;;;12.85;60.06;97215.28;4958637;28;123357;-81
2023/10/28 04:38:29;;;;;;;3.90;1.50;;;12.50;96.10;;;12.85;60.09;97231.91;4972581;28;121777;-83
2023/10/28 04:41:00;;;;;;;4.20;1.43;;;12.50;95.90;;;12.79;59.92;97223.88;4978949;28;113460;-87
2023/10/28 04:43:26;;;;;;;5.57;1.30;;;12.80;96.00;;;12.80;59.59;97225.47;4993391;28;113785;-81
2023/10/28 04:45:53;;;;;;;3.40;1.30;;;13.80;96.60;;;12.81;59.45;97226.28;4972133;28;123289;-83
2023/10/28 04:48:21;;;;;;;3.40;1.60;;;12.50;95.80;;;12.82;59.40;97220.38;4972350;28;123837;-86
2023/10/28 04:50:48;;;;;;;4.50;1.50;;;14.80;96.70;;;12.83;59.47;97218.41;4972532;28;115220;-81
2023/10/28 04:53:15;;;;;;;3.67;1.20;;;12.50;95.70;;;12.82;59.41;97217.59;4973924;28;115083;-80
2023/10/28 04:55:43;;;;;;;3.13;1.20;;;12.50;95.60;;;12.86;59.46;97222.41;4969730;28;123343;-84
2023/10/28 04:58:11;;;;;;;2.20;1.63;;;12.50;95.60;;;12.86;59.43;97225.97;4969483;28;123595;-86
2023/10/28 05:00:38;;;;;;;3.67;1.20;;;12.60;95.60;;;12.85;59.38;97223.59;4962679;28;113856;-80
2023/10/28 05:03:04;;;;;;;2.07;1.20;;;13.80;96.20;;;12.82;59.32;97228.69;4963336;28;113825;-80
2023/10/28 05:05:31;;;;;;;3.83;1.20;;;14.20;96.30;;;12.84;59.11;97231.06;4965813;28;123268;-81
2023/10/28 05:07:57;;;;;;;2.60;1.00;;;13.60;96.00;;;12.79;59.36;97223.09;4986316;28;123021;-81
2023/10/28 05:10:26;;;;;;;1.77;1.10;;;14.00;96.30;;;12.80;59.14;97227.44;4953662;28;113569;-81
2023/10/28 05:12:52;;;;;;;6.20;1.37;;;12.70;95.50;;;12.79;59.38;97226.66;4958626;28;113252;-81
2023/10/28 05:15:21;;;;;;;4.70;2.17;;;13.50;95.80;;;12.78;59.06;97233.34;4956910;28;123973;-81
2023/10/28 05:17:50;;;;;;;3.13;1.60;;;13.40;95.70;;;12.78;58.81;97222.25;4963833;28;123715;-82
2023/10/28 05:20:17;;;;;;;2.13;1.00;;;15.10;96.30;;;12.79;58.81;97223.09;4951237;28;114569;-80
2023/10/28 05:22:43;;;;;;;4.70;1.43;;;12.50;95.10;;;12.81;58.70;97215.19;4959595;28;114510;-82
2023/10/28 05:25:11;;;;;;;2.17;1.40;;;14.80;96.10;;;12.84;58.72;97220.00;4972806;28;123347;-84
2023/10/28 05:27:40;;;;;;;5.33;1.30;;;13.80;95.90;;;12.88;58.37;97215.34;4966446;28;123318;-81
2023/10/28 05:30:11;;;;;;;7.17;1.30;;;12.60;95.10;;;12.90;58.61;97215.78;4955567;28;114405;-81
2023/10/28 05:32:39;;;;;;;2.77;1.10;;;12.60;95.10;;;12.91;58.35;97214.59;4960181;28;114314;-82
2023/10/28 05:35:08;;;;;;;4.30;1.30;;;13.60;95.50;;;12.94;58.53;97218.59;4984861;28;124115;-81
2023/10/28 05:37:35;;;;;;;2.93;1.27;;;12.60;95.00;;;12.95;58.17;97223.78;4962926;28;125692;-82
2023/10/28 05:40:02;;;;;;;3.93;1.43;;;15.40;96.20;;;12.94;58.67;97215.84;5000538;28;114145;-84
2023/10/28 05:42:31;;;;;;;4.13;1.40;;;12.70;95.10;;;12.97;58.12;97223.41;4963853;28;114849;-82
2023/10/28 05:44:57;;;;;;;5.93;1.47;;;14.70;95.90;;;12.97;58.20;97228.94;4958184;28;123435;-80
2023/10/28 05:47:24;;;;;;;3.13;1.40;;;14.00;95.60;;;12.96;58.16;97230.13;4955344;28;123849;-80
2023/10/28 05:49:50;;;;;;;1.43;1.00;;;13.90;95.50;;;12.94;58.31;97230.47;4961095;28;113731;-82
2023/10/28 05:52:20;;;;;;;2.27;1.13;;;15.10;95.90;;;12.91;58.07;97247.84;4975924;28;113794;-83
2023/10/28 05:54:46;;;;;;;3.10;1.60;;;12.60;94.90;;;12.87;58.14;97257.25;4959346;28;124023;-83
2023/10/28 05:57:13;;;;;;;5.20;1.63;;;12.60;94.80;;;12.84;58.14;97258.78;4950583;28;123869;-80
2023/10/28 05:59:39;;;;;;;2.03;1.20;;;14.30;95.60;;;12.80;58.10;97257.94;4971441;28;114216;-80
2023/10/28 06:02:07;;;;;;;6.80;1.33;;;14.90;95.90;;;12.77;57.91;97255.91;4964917;28;114205;-81
2023/10/28 06:04:33;;;;;;;3.70;1.10;;;14.30;95.60;;;12.74;58.41;97260.19;4978786;28;122520;-81
2023/10/28 06:07:00;;;;;;;3.10;1.40;;;12.20;94.70;;;12.73;58.33;97253.03;4967820;28;124325;-80
2023/10/28 06:09:26;;;;;;;3.70;1.10;;;12.40;94.80;;;12.73;58.34;97261.34;4963663;28;114214;-81
2023/10/28 06:11:52;;;;;;;1.20;1.00;;;12.50;94.90;;;12.76;58.33;97268.13;4961221;28;114045;-79
2023/10/28 06:14:21;;;;;;;3.90;1.53;;;13.40;95.30;;;12.74;58.54;97276.81;4965224;28;123246;-84
2023/10/28 06:16:49;;;;;;;2.07;1.47;;;14.40;95.70;;;12.74;58.80;97270.47;4971550;28;123831;-81
2023/10/28 06:19:16;;;;;;;2.53;1.20;;;14.40;95.80;;;12.72;58.38;97262.53;4971312;28;113972;-80
2023/10/28 06:21:42;;;;;;;3.13;1.30;;;13.80;95.60;;;12.74;58.54;97276.81;4956277;28;113946;-81
2023/10/28 06:24:11;;;;;;;2.90;1.33;;;14.00;95.60;;;12.77;58.62;97281.63;4955686;28;123998;-82
2023/10/28 06:26:38;;;;;;;3.13;1.13;;;12.50;95.00;;;12.75;58.82;97285.94;4971535;28;122888;-81
2023/10/28 06:29:08;;;;;;;6.60;1.30;;;14.60;95.90;;;12.77;58.57;97292.72;4963592;28;115299;-85
2023/10/28 06:31:38;;;;;;;3.30;1.17;;;14.00;95.70;;;12.76;58.63;97290.31;4961441;28;115767;-80
2023/10/28 06:34:07;;;;;;;4.23;1.10;;;12.60;95.10;;;12.76;58.67;97301.38;4968532;28;123608;-80
2023/10/28 06:36:34;;;;;;;5.57;1.60;;;12.50;95.10;;;12.74;58.76;97296.22;4957902;28;124282;-81
2023/10/28 06:39:03;;;;;;;5.97;1.30;;;12.50;95.10;;;12.80;58.56;97292.00;4953469;28;114225;-80
2023/10/28 06:41:30;;;;;;;4.47;1.50;;;12.50;95.10;;;12.80;58.83;97297.53;4958687;28;113982;-81
2023/10/28 06:43:56;;;;;;;1.57;1.10;;;13.80;95.80;;;12.79;58.88;97307.03;4957075;28;124113;-82
2023/10/28 06:46:25;;;;;;;3.30;1.33;;;13.30;95.50;;;12.78;58.81;97299.84;4966143;28;124065;-81
2023/10/28 06:48:51;;;;;;;1.60;1.27;;;12.70;95.20;;;12.78;58.83;97299.84;4966686;28;113628;-84
2023/10/28 06:51:21;;;;;;;7.30;1.87;;;13.60;95.70;;;12.80;59.09;97308.63;4963345;28;114250;-82
2023/10/28 06:53:50;;;;;;;9.80;1.50;;;12.40;95.20;;;12.80;58.83;97310.59;4960370;28;124078;-82
2023/10/28 06:56:18;;;;;;;4.80;1.37;;;12.50;95.30;;;12.82;59.07;97319.34;4971304;28;123927;-85
2023/10/28 06:58:46;;;;;;;5.07;1.63;;;12.50;95.30;;;12.82;58.95;97320.16;4969106;28;113995;-87
2023/10/28 07:01:13;;;;;;;2.87;1.20;;;12.50;95.20;;;12.89;58.86;97324.22;4964604;28;114225;-83
2023/10/28 07:03:40;;;;;;;3.50;1.40;;;13.90;96.20;;;12.89;59.12;97321.47;4958591;28;124378;-82
2023/10/28 07:06:14;;;;;;;2.53;1.10;;;13.00;95.40;;;12.90;58.93;97323.88;4953248;28;123368;-80
2023/10/28 07:08:48;;;;;;;3.70;1.50;;;12.60;95.20;;;12.93;58.57;97337.00;4944784;28;114671;-81
2023/10/28 07:11:15;;;;;;;4.90;1.70;;;12.60;95.20;;;12.96;58.84;97350.13;4990105;28;113979;-83
2023/10/28 07:13:41;;;;;;;2.03;1.20;;;12.60;95.20;;;13.00;58.67;97344.66;4956832;28;123904;-81
2023/10/28 07:16:08;;;;;;;3.20;1.50;;;12.70;95.20;;;13.09;58.68;97338.91;4952463;28;123751;-82
2023/10/28 07:18:34;;;;;;;2.63;1.40;;;14.00;95.80;;;13.16;58.49;97353.69;4957603;28;114402;-84
2023/10/28 07:21:03;;;;;;;2.80;1.30;;;12.70;95.20;;;13.23;58.21;97342.75;4992321;28;113897;-83
2023/10/28 07:23:31;;;;;;;3.43;1.30;;;11.30;94.50;;;13.29;58.17;97346.06;4960791;28;123249;-80
2023/10/28 07:25:59;;;;;;;2.80;1.30;;;12.80;95.00;;;13.36;58.02;97356.53;4953454;28;124239;-84
2023/10/28 07:28:27;;;;;;;4.83;1.83;;;15.50;96.20;;;13.44;57.92;97341.63;4958569;28;112414;-83
2023/10/28 07:30:53;;;;;;;4.67;1.20;;;13.00;95.10;;;13.54;57.76;97357.69;4950377;28;113805;-84
2023/10/28 07:33:24;;;;;;;3.93;1.30;;;13.00;95.00;;;13.63;57.15;97366.56;4978004;28;123453;-85
2023/10/28 07:35:50;;;;;;;4.73;1.40;;;13.10;94.80;;;13.62;57.09;97358.59;4963293;28;123791;-82
2023/10/28 07:38:18;;;;;;;2.67;1.27;;;13.20;94.80;;;13.61;57.04;97357.78;4957246;28;114216;-83
2023/10/28 07:40:45;;;;;;;3.67;1.43;;;13.20;94.60;;;13.63;57.13;97357.44;4951370;28;113928;-81
2023/10/28 07:43:17;;;;;;;4.13;1.50;;;13.20;94.60;;;13.65;56.98;97367.00;4956644;28;123319;-80
2023/10/28 07:45:48;;;;;;;5.57;1.40;;;13.20;94.50;;;13.65;57.04;97361.44;4952511;28;124249;-85
2023/10/28 07:48:14;;;;;;;5.93;2.33;;;14.30;95.00;;;13.70;56.60;97360.31;4957722;28;114245;-84
2023/10/28 07:50:42;;;;;;;4.90;2.50;;;13.30;94.40;;;13.72;56.75;97363.53;4964584;28;113953;-81
2023/10/28 07:53:10;;;;;;;2.87;1.47;;;13.40;94.40;;;13.75;56.67;97373.91;4981400;28;123842;-84
2023/10/28 07:55:39;;;;;;;3.83;1.57;;;13.60;94.40;;;13.79;56.52;97380.34;4961459;28;123609;-82
2023/10/28 07:58:05;;;;;;;3.23;1.17;;;14.90;95.00;;;13.88;56.47;97385.66;4957080;28;113549;-80
2023/10/28 08:00:36;;;;;;;3.53;1.10;;;15.70;95.30;;;13.91;56.19;97382.91;4968415;28;113805;-80
2023/10/28 08:03:03;;;;;;;3.23;1.20;;;13.50;94.20;;;13.93;56.69;97388.13;4959356;28;124353;-82
2023/10/28 08:05:30;;;;;;;3.20;1.70;;;13.50;94.20;;;13.97;56.45;97394.56;4965672;28;123949;-85
2023/10/28 08:07:56;;;;;;;3.40;1.80;;;13.60;94.20;;;14.00;56.20;97385.47;4957172;28;115200;-85
2023/10/28 08:10:23;;;;;;;4.50;1.57;;;13.60;94.10;;;14.07;56.31;97390.34;4956512;28;114946;-86
2023/10/28 08:12:54;;;;;;;3.90;1.60;;;13.70;94.20;;;14.10;56.21;97384.03;4952450;28;124609;-84
2023/10/28 08:15:21;;;;;;;5.53;1.50;;;14.80;94.60;;;14.18;56.14;97396.06;4950717;28;123774;-83
2023/10/28 08:17:48;;;;;;;4.60;1.67;;;13.80;94.10;;;14.25;56.08;97397.00;4953681;28;114214;-85
2023/10/28 08:20:15;;;;;;;3.93;1.40;;;13.80;94.20;;;14.34;55.94;97393.97;4960202;28;114569;-81
2023/10/28 08:22:41;;;;;;;3.17;1.50;;;15.70;94.90;;;14.44;55.96;97400.88;4970121;28;124414;-84
2023/10/28 08:25:08;;;;;;;10.23;1.70;;;14.00;94.10;;;14.51;55.40;97409.34;4959324;28;122997;-82
2023/10/28 08:27:35;;;;;;;5.33;1.77;;;14.00;93.90;;;14.55;55.09;97399.09;4960107;28;114146;-86
2023/10/28 08:30:04;;;;;;;4.03;1.13;;;14.10;93.70;;;14.60;54.95;97411.88;4951906;28;113827;-85
2023/10/28 08:32:32;;;;;;;2.20;1.20;;;14.10;93.60;;;14.64;54.28;97401.63;4960878;28;123836;-86
2023/10/28 08:35:00;;;;;;;4.07;1.50;;;16.50;94.50;;;14.70;54.06;97398.16;4955675;28;123668;-84
2023/10/28 08:37:28;;;;;;;2.40;1.47;;;14.60;93.40;;;14.78;54.29;97407.41;4962413;28;114085;-85
2023/10/28 08:39:55;;;;;;;4.00;1.50;;;15.30;93.70;;;14.82;53.63;97407.44;4961130;28;114500;-85
2023/10/28 08:42:22;;;;;;;8.43;1.40;;;14.50;93.00;;;14.84;53.66;97405.91;4961222;28;124530;-84
2023/10/28 08:44:51;;;;;;;3.90;1.87;;;14.40;93.00;;;14.90;53.25;97392.47;4958426;28;123840;-83
2023/10/28 08:47:24;;;;;;;3.03;1.40;;;14.50;92.70;;;14.94;52.73;97405.25;4963527;28;113545;-84
2023/10/28 08:49:52;;;;;;;2.30;1.13;;;14.90;92.60;;;15.00;53.02;97405.72;4967260;28;113783;-85
2023/10/28 08:52:23;;;;;;;3.97;1.20;;;14.50;92.50;;;15.03;52.90;97393.84;4959108;28;123529;-83
2023/10/28 08:54:50;;;;;;;4.90;1.87;;;14.60;92.40;;;15.08;52.82;97392.72;4966810;28;124340;-82
2023/10/28 08:57:20;;;;;;;4.73;1.70;;;14.60;92.30;;;15.10;52.65;97393.13;4957301;28;115731;-83
2023/10/28 08:59:46;;;;;;;2.30;1.37;;;15.10;92.40;;;15.13;52.64;97401.53;4975299;28;115073;-82
2023/10/28 09:02:13;;;;;;;5.07;1.27;;;17.10;93.20;;;15.16;52.28;97402.78;4957946;28;124037;-81
2023/10/28 09:04:39;;;;;;;6.30;1.50;;;14.80;92.10;;;15.19;51.92;97405.59;4953118;28;123820;-84
2023/10/28 09:07:07;;;;;;;8.53;1.70;;;14.80;91.90;;;15.21;52.12;97413.56;4950684;28;114769;-80
2023/10/28 09:09:37;;;;;;;5.60;1.50;;;15.00;91.90;;;15.24;51.92;97407.25;4949939;28;113380;-85
2023/10/28 09:12:07;;;;;;;2.23;1.20;;;15.30;92.00;;;15.28;51.71;97422.00;4951829;28;124320;-83
2023/10/28 09:14:33;;;;;;;3.07;1.10;;;14.90;91.70;;;15.32;51.27;97420.06;4948147;28;123890;-83
2023/10/28 09:17:03;;;;;;;3.03;1.37;;;14.90;91.40;;;15.35;51.25;97413.75;4954551;28;114036;-80
2023/10/28 09:19:29;;;;;;;3.47;1.20;;;14.90;91.30;;;15.39;51.42;97414.63;4951771;28;113737;-81
2023/10/28 09:21:58;;;;;;;5.93;1.40;;;15.80;91.80;;;15.43;51.44;97415.44;4950739;28;124016;-79
2023/10/28 09:24:28;;;;;;;3.53;2.10;;;15.00;91.50;;;15.49;51.55;97412.31;4951214;28;123795;-81
2023/10/28 09:26:54;;;;;;;5.80;1.53;;;15.10;91.50;;;15.54;51.34;97414.78;4948442;28;114333;-78
2023/10/28 09:29:33;;;;;;;3.20;1.57;;;15.50;91.60;;;15.60;51.38;97404.91;4948407;28;114043;-87
2023/10/28 09:32:06;;;;;;;5.70;1.60;;;15.20;91.80;;;15.65;50.97;97402.56;4952244;28;122881;-83
2023/10/28 09:34:40;;;;;;;2.87;1.50;;;15.20;91.20;;;15.66;50.50;97397.81;4962726;28;123868;-82
2023/10/28 09:37:10;;;;;;;4.60;1.47;;;15.20;91.00;;;15.66;50.86;97401.41;4947053;28;114456;-82
2023/10/28 09:39:37;;;;;;;1.97;1.20;;;15.30;91.10;;;15.68;50.66;97398.22;4957903;28;113796;-87
2023/10/28 09:42:04;;;;;;;5.43;1.87;;;15.30;90.90;;;15.71;50.53;97414.19;4962942;28;123951;-82
2023/10/28 09:44:34;;;;;;;3.80;1.70;;;15.30;90.90;;;15.73;50.17;97420.19;4966542;28;123834;-83
2023/10/28 09:47:05;;;;;;;2.40;1.43;;;16.50;91.00;;;15.73;50.11;97414.63;4967202;28;115033;-80
2023/10/28 09:49:32;;;;;;;4.33;1.40;;;15.30;90.60;;;15.73;50.19;97413.84;4963713;28;115547;-81
2023/10/28 09:52:13;;;;;;;10.57;1.50;;;15.40;90.70;;;15.77;50.17;97417.44;4962223;28;123104;-82
2023/10/28 09:54:44;;;;;;;5.57;1.53;;;16.20;91.00;;;15.80;50.30;97405.56;4994279;28;124815;-83
2023/10/28 09:57:11;;;;;;;3.20;1.63;;;15.40;90.70;;;15.87;50.44;97412.00;4961778;28;113974;-80
2023/10/28 09:59:44;;;;;;;4.23;1.40;;;15.50;90.70;;;15.94;50.15;97419.63;4956913;28;114222;-80
2023/10/28 10:03:03;;;;;;;6.40;1.73;;;15.50;90.60;;;15.99;50.28;97412.94;4967850;28;123984;-83
2023/10/28 10:05:39;;;;;;;3.93;1.63;;;15.60;90.70;;;16.07;50.01;97417.38;4980303;28;122914;-86
2023/10/28 10:08:17;;;;;;;3.33;1.77;;;16.60;90.90;;;16.14;49.05;97414.66;4951882;28;113807;-88
2023/10/28 10:10:47;;;;;;;3.57;1.23;;;15.70;90.00;;;16.17;49.05;97413.88;4939564;28;113049;-88
2023/10/28 10:13:17;;;;;;;3.20;1.20;;;15.80;90.10;;;16.25;49.39;97425.91;4958072;28;124156;-88
2023/10/28 10:15:57;;;;;;;3.67;1.00;;;15.80;90.20;;;16.33;49.24;97417.25;4947963;28;122939;-88
2023/10/28 10:18:46;;;;;;;2.57;1.30;;;15.90;90.10;;;16.42;48.74;97419.69;4959228;28;114271;-88